Latest Weather Observations for Roebourne Airport

IDW60801

Issued at 4:35 pm WST Tuesday 2 September 2014 (issued every 30 minutes, with the page automatically refreshed every 10 minutes)

About weather observations | Map of weather stations | Latest weather observations for WA | Other Formats
Station Details ID: 004090 Name: ROEBOURNE AERO Lat: -20.76 Lon: 117.16 Height: 10.7 m
Data from the previous 72 hours. | See also: Recent months at Roebourne Airport
Date/Time
WST
Temp
°C
App
Temp
°C
Dew
Point
Rel
Hum
%
Delta-T
°C
Wind Press
QNH
hPa
Press
MSL
hPa
Rain
since 9 am
mm
Dir
 
Spd
km/h
Gust
km/h
Spd
kts
Gust
kts
02/04:30pm 32.6 27.7 -0.5 12 15.9 WNW 15 20 8 11 1014.5 1014.4 0.0
02/04:00pm 33.2 28.0 -2.5 10 16.7 NNW 15 20 8 11 1014.3 1014.2 0.0
02/03:30pm 33.4 28.6 -2.3 10 16.8 NW 13 20 7 11 1014.3 1014.2 0.0
02/03:00pm 33.7 28.4 -3.5 9 17.2 NNW 15 24 8 13 1014.5 1014.4 0.0
02/02:30pm 33.6 28.3 -3.6 9 17.1 NW 15 22 8 12 1014.6 1014.5 0.0
02/02:00pm 33.5 28.6 -3.7 9 17.1 NW 13 22 7 12 1015.0 1014.9 0.0
02/01:30pm 33.5 28.5 1.3 13 16.1 N 17 24 9 13 1015.4 1015.3 0.0
02/01:00pm 33.5 28.1 1.3 13 16.1 NNE 19 24 10 13 1015.9 1015.8 0.0
02/12:30pm 32.5 27.4 0.6 13 15.7 N 17 24 9 13 1016.3 1016.2 0.0
02/12:00pm 32.5 27.9 3.5 16 14.9 N 17 24 9 13 1016.6 1016.5 0.0
02/11:30am 32.1 27.9 4.0 17 14.6 N 15 20 8 11 1016.8 1016.7 0.0
02/11:00am 31.7 28.3 1.9 15 14.8 NE 9 17 5 9 1017.2 1017.1 0.0
02/10:30am 31.4 28.4 1.7 15 14.7 N 7 13 4 7 1017.5 1017.4 0.0
02/10:00am 29.9 26.9 0.5 15 14.1 E 6 11 3 6 1017.7 1017.6 0.0
02/09:30am 28.1 26.0 1.6 18 12.8 WNW 2 9 1 5 1017.9 1017.8 0.0
02/09:00am 26.7 25.1 2.6 21 11.8 CALM 0 2 0 1 1017.6 1017.5 0.0
02/08:30am 22.8 21.6 4.8 31 8.9 CALM 0 0 0 0 1017.2 1017.1 0.0
02/08:00am 19.5 18.5 5.6 40 6.8 CALM 0 0 0 0 1016.8 1016.7 0.0
02/07:30am 16.3 15.6 7.0 54 4.6 CALM 0 0 0 0 1016.5 1016.4 0.0
02/07:00am 11.8 9.9 4.8 62 3.2 NNE 4 6 2 3 1016.2 1016.1 0.0
02/06:30am 9.6 8.2 3.6 66 2.6 CALM 0 0 0 0 1015.9 1015.8 0.0
02/06:00am 9.7 8.3 3.4 65 2.7 SSW 0 0 0 0 1015.7 1015.6 0.0
02/05:30am 10.5 9.4 5.3 70 2.4 CALM 0 0 0 0 1015.4 1015.3 0.0
02/05:00am 10.8 9.8 5.8 71 2.3 CALM 0 0 0 0 1015.1 1015.0 0.0
02/04:30am 11.3 10.0 6.0 70 2.5 SW 2 6 1 3 1015.0 1014.9 0.0
02/04:00am 12.4 10.0 6.9 69 2.6 WSW 9 11 5 6 1014.8 1014.7 0.0
02/03:30am 12.2 10.1 6.7 69 2.6 S 7 9 4 5 1014.9 1014.8 0.0
02/03:00am 13.1 11.5 8.2 72 2.4 WSW 6 9 3 5 1015.2 1015.1 0.0
02/02:30am 13.2 11.3 7.4 68 2.8 SSW 7 9 4 5 1015.3 1015.2 0.0
02/02:00am 14.9 14.1 9.7 71 2.7 SSW 4 7 2 4 1015.4 1015.3 0.0
02/01:30am 14.8 14.4 9.6 71 2.7 W 2 7 1 4 1015.6 1015.5 0.0
02/01:00am 17.7 16.3 10.8 64 3.7 SW 9 13 5 7 1015.7 1015.6 0.0
02/12:30am 17.8 16.0 12.0 69 3.2 SW 13 15 7 8 1015.9 1015.8 0.0
02/12:00am 17.6 16.0 11.4 67 3.4 SW 11 13 6 7 1015.8 1015.7 0.0
 
Date/Time
WST
Temp
°C
App
Temp
°C
Dew
Point
Rel
Hum
%
Delta-T
°C
Wind Press
QNH
hPa
Press
MSL
hPa
Rain
since 9 am
mm
Dir
 
Spd
km/h
Gust
km/h
Spd
kts
Gust
kts
01/11:30pm 17.1 16.0 12.0 72 2.8 SW 9 9 5 5 1015.8 1015.7 0.0
01/11:00pm 17.6 16.3 11.2 66 3.5 W 9 11 5 6 1016.1 1016.0 0.0
01/10:30pm 17.3 15.3 11.6 69 3.1 SW 13 15 7 8 1016.3 1016.2 0.0
01/10:00pm 17.0 15.5 10.4 65 3.5 SSW 9 13 5 7 1016.3 1016.2 0.0
01/09:30pm 18.3 15.9 8.8 54 4.9 WSW 11 13 6 7 1016.0 1015.9 0.0
01/09:00pm 20.8 19.4 12.2 58 4.8 W 11 15 6 8 1015.8 1015.7 0.0
01/08:30pm 19.6 17.9 9.8 53 5.2 WNW 9 13 5 7 1015.7 1015.6 0.0
01/08:00pm 20.6 17.9 8.9 47 6.2 NW 13 15 7 8 1015.4 1015.3 0.0
01/07:30pm 21.8 19.6 9.3 45 6.7 WNW 11 13 6 7 1015.1 1015.0 0.0
01/07:00pm 22.6 20.2 10.1 45 6.8 NW 13 15 7 8 1014.7 1014.6 0.0
01/06:30pm 24.1 21.7 6.8 33 9.0 NW 9 13 5 7 1014.5 1014.4 0.0
01/06:00pm 26.6 24.0 10.7 37 8.9 NNW 15 17 8 9 1014.2 1014.1 0.0
01/05:30pm 30.1 25.2 -0.3 14 14.4 N 15 17 8 9 1014.1 1014.0 0.0
01/05:00pm 31.2 26.4 -2.7 11 15.6 N 13 17 7 9 1013.9 1013.8 0.0
01/04:30pm 32.0 27.6 0.2 13 15.4 N 13 17 7 9 1013.7 1013.6 0.0
01/04:00pm 33.0 28.2 -2.6 10 16.6 N 13 22 7 12 1013.6 1013.5 0.0
01/03:30pm 33.1 28.1 -1.3 11 16.4 NNE 15 20 8 11 1013.4 1013.4 0.0
01/03:00pm 33.6 27.7 -5.2 8 17.4 NNE 17 22 9 12 1013.6 1013.5 0.0
01/02:30pm 34.5 29.3 -2.9 9 17.6 NNE 15 22 8 12 1013.6 1013.5 0.0
01/02:00pm 34.2 28.2 -3.2 9 17.4 NNE 19 24 10 13 1013.9 1013.8 0.0
01/01:30pm 34.2 27.8 -1.7 10 17.2 NNE 22 30 12 16 1014.2 1014.1 0.0
01/01:00pm 34.0 28.4 -3.3 9 17.3 N 17 22 9 12 1014.9 1014.8 0.0
01/12:30pm 33.7 28.9 4.4 16 15.4 NNE 19 24 10 13 1015.2 1015.1 0.0
01/12:00pm 32.7 27.8 5.3 18 14.5 NNE 20 24 11 13 1015.4 1015.3 0.0
01/11:30am 33.0 28.8 3.9 16 15.1 NNE 15 20 8 11 1015.5 1015.4 0.0
01/11:00am 33.2 29.2 4.9 17 15.0 NE 15 22 8 12 1015.7 1015.6 0.0
01/10:30am 32.2 27.8 -6.2 8 16.8 S 9 15 5 8 1016.1 1016.0 0.0
01/10:00am 31.8 27.1 -4.9 9 16.3 SE 11 17 6 9 1016.3 1016.2 0.0
01/09:30am 30.0 26.1 -1.4 13 14.6 ESE 9 13 5 7 1016.2 1016.1 0.0
01/09:00am 27.9 24.6 -0.2 16 13.1 SSE 7 9 4 5 1016.4 1016.3 0.0
01/08:30am 25.2 22.7 1.3 21 11.3 S 4 7 2 4 1016.2 1016.1 0.0
01/08:00am 20.9 19.8 4.9 35 7.8 CALM 0 6 0 3 1015.9 1015.8 0.0
01/07:30am 16.2 15.4 6.6 53 4.7 CALM 0 0 0 0 1015.6 1015.5 0.0
01/07:00am 11.7 10.4 6.0 68 2.7 SW 2 7 1 4 1015.3 1015.2 0.0
01/06:30am 9.9 8.9 5.5 74 2.0 CALM 0 0 0 0 1015.1 1015.0 0.0
01/06:00am 9.7 8.6 4.9 72 2.2 CALM 0 2 0 1 1014.7 1014.6 0.0
01/05:30am 10.7 7.4 4.8 67 2.7 WSW 11 13 6 7 1014.4 1014.3 0.0
01/05:00am 10.1 8.5 6.4 78 1.7 WSW 4 6 2 3 1014.5 1014.4 0.0
01/04:30am 10.0 9.2 6.7 80 1.5 CALM 0 0 0 0 1014.3 1014.2 0.0
01/04:00am 10.7 10.1 7.4 80 1.6 CALM 0 0 0 0 1014.2 1014.1 0.0
01/03:30am 10.7 9.9 6.6 76 1.9 CALM 0 6 0 3 1014.2 1014.1 0.0
01/03:00am 12.3 10.5 9.3 82 1.5 W 9 11 5 6 1014.3 1014.2 0.0
01/02:30am 11.6 10.0 8.8 83 1.4 SW 7 11 4 6 1014.5 1014.4 0.0
01/02:00am 11.7 11.0 6.8 72 2.3 CALM 0 6 0 3 1014.5 1014.4 0.0
01/01:30am 15.5 13.8 11.3 76 2.3 W 11 11 6 6 1014.5 1014.4 0.0
01/01:00am 14.4 13.8 10.4 77 2.1 WNW 4 13 2 7 1014.7 1014.6 0.0
01/12:30am 14.4 13.5 10.6 78 2.0 SW 6 6 3 3 1014.9 1014.8 0.0
01/12:00am 15.8 15.4 11.0 73 2.6 WSW 4 9 2 5 1015.1 1015.0 0.0
 
Date/Time
WST
Temp
°C
App
Temp
°C
Dew
Point
Rel
Hum
%
Delta-T
°C
Wind Press
QNH
hPa
Press
MSL
hPa
Rain
since 9 am
mm
Dir
 
Spd
km/h
Gust
km/h
Spd
kts
Gust
kts
31/11:30pm 16.0 15.0 11.0 72 2.7 SW 7 9 4 5 1015.2 1015.1 0.0
31/11:00pm 17.4 16.9 12.7 74 2.6 SW 7 9 4 5 1015.3 1015.2 0.0
31/10:30pm 17.4 16.9 12.7 74 2.6 SW 7 9 4 5 1015.3 1015.2 0.0
31/10:00pm 18.7 17.5 14.0 74 2.7 SW 13 15 7 8 1015.4 1015.3 0.0
31/09:30pm 16.9 15.4 10.7 67 3.3 SSW 9 13 5 7 1015.6 1015.5 0.0
31/09:00pm 18.8 17.6 11.6 63 4.0 SW 9 11 5 6 1015.4 1015.3 0.0
31/08:30pm 21.2 20.8 14.1 64 4.1 W 9 13 5 7 1015.2 1015.1 0.0
31/08:00pm 21.3 20.8 14.9 67 3.8 W 11 13 6 7 1014.8 1014.7 0.0
31/07:30pm 21.8 19.9 11.8 53 5.6 W 13 15 7 8 1014.5 1014.4 0.0
31/07:00pm 21.8 19.7 9.7 46 6.5 NNW 11 13 6 7 1014.2 1014.1 0.0
31/06:30pm 23.4 20.2 6.7 34 8.6 NNW 13 15 7 8 1014.0 1013.9 0.0
31/06:00pm 26.3 23.0 6.3 28 10.4 NW 13 15 7 8 1013.6 1013.5 0.0
31/05:30pm 28.7 25.8 6.7 25 11.7 NNW 11 13 6 7 1013.3 1013.3 0.0
31/05:00pm 29.5 26.1 9.1 28 11.3 N 17 20 9 11 1013.2 1013.2 0.0
31/04:30pm 31.1 25.8 -0.5 13 15.1 NNW 17 20 9 11 1013.3 1013.3 0.0
31/04:00pm 32.3 26.7 -3.2 10 16.3 NNW 17 22 9 12 1013.3 1013.3 0.0
31/03:30pm 33.1 26.3 -5.5 8 17.2 N 22 30 12 16 1013.1 1013.1 0.0
31/03:00pm 33.0 26.7 -5.6 8 17.1 NNE 19 26 10 14 1013.2 1013.2 0.0
31/02:30pm 33.4 27.5 -5.3 8 17.3 NNE 17 24 9 13 1013.4 1013.4 0.0
31/02:00pm 33.7 27.7 -6.8 7 17.7 N 17 26 9 14 1013.7 1013.6 0.0
31/01:30pm 34.6 28.6 -6.2 7 18.2 N 17 24 9 13 1014.0 1013.9 0.0
31/01:00pm 34.2 28.4 -4.7 8 17.7 NNE 17 26 9 14 1014.2 1014.1 0.0
31/12:30pm 34.3 28.3 -6.4 7 18.0 NE 17 22 9 12 1014.4 1014.3 0.0
31/12:00pm 33.3 28.8 -7.1 7 17.5 N 9 19 5 10 1014.9 1014.8 0.0
31/11:30am 33.1 28.6 -7.3 7 17.4 N 9 20 5 11 1015.3 1015.2 0.0
31/11:00am 32.4 28.2 -7.8 7 17.1 W 7 13 4 7 1015.6 1015.5 0.0
31/10:30am 31.6 27.5 -6.6 8 16.5 SSW 7 15 4 8 1015.9 1015.8 0.0
31/10:00am 30.1 26.5 -2.4 12 14.9 S 7 13 4 7 1016.3 1016.2 0.0
31/09:30am 28.6 26.7 0.3 16 13.4 CALM 0 6 0 3 1016.6 1016.5 0.0
31/09:00am 25.5 22.8 0.2 19 11.7 E 4 7 2 4 1016.7 1016.6 0.0
31/08:30am 23.2 21.3 0.3 22 10.4 CALM 0 0 0 0 1016.5 1016.4 0.0
31/08:00am 20.3 18.8 3.1 32 8.1 CALM 0 4 0 2 1016.4 1016.3 0.0
31/07:30am 16.3 15.1 4.7 46 5.5 CALM 0 0 0 0 1016.1 1016.0 0.0
31/07:00am 11.9 10.6 4.2 59 3.5 CALM 0 0 0 0 1015.7 1015.6 0.0
31/06:30am 9.8 8.4 3.5 65 2.7 CALM 0 0 0 0 1015.3 1015.2 0.0
31/06:00am 9.4 8.0 3.4 66 2.6 CALM 0 0 0 0 1015.1 1015.0 0.0
31/05:30am 9.7 8.4 3.9 67 2.5 CALM 0 6 0 3 1015.0 1014.9 0.0
31/05:00am 11.1 10.2 6.0 71 2.4 CALM 0 0 0 0 1014.9 1014.8 0.0
31/04:30am 10.8 9.7 6.7 76 1.9 WSW 2 7 1 4 1014.9 1014.8 0.0
31/04:00am 10.9 8.6 7.4 79 1.7 SW 9 13 5 7 1014.8 1014.7 0.0
31/03:30am 10.7 9.6 6.8 77 1.8 W 2 6 1 3 1014.9 1014.8 0.0
31/03:00am 10.9 10.1 6.6 75 2.0 CALM 0 0 0 0 1015.1 1015.0 0.0
31/02:30am 12.4 10.2 7.9 74 2.2 W 9 11 5 6 1015.2 1015.1 0.0
31/02:00am 13.0 10.7 9.1 77 2.0 SW 11 13 6 7 1015.3 1015.2 0.0
31/01:30am 12.7 10.7 8.6 76 2.0 WSW 9 11 5 6 1015.5 1015.4 0.0
31/01:00am 13.7 12.6 9.9 78 2.0 WSW 6 7 3 4 1015.9 1015.8 0.0
31/12:30am 14.4 13.6 11.6 83 1.5 WSW 7 11 4 6 1016.1 1016.0 0.0
31/12:00am 14.5 13.3 9.7 73 2.5 WSW 6 9 3 5 1016.3 1016.2 0.0
 
Date/Time
WST
Temp
°C
App
Temp
°C
Dew
Point
Rel
Hum
%
Delta-T
°C
Wind Press
QNH
hPa
Press
MSL
hPa
Rain
since 9 am
mm
Dir
 
Spd
km/h
Gust
km/h
Spd
kts
Gust
kts
30/11:30pm 13.9 11.8 8.3 69 2.8 SW 9 11 5 6 1016.4 1016.3 0.0
30/11:00pm 14.9 13.2 8.4 65 3.3 WSW 7 9 4 5 1016.5 1016.4 0.0
30/10:30pm 14.2 12.1 6.8 61 3.6 SW 7 9 4 5 1016.7 1016.6 0.0
30/10:00pm 15.8 13.8 7.3 57 4.2 SW 7 9 4 5 1016.8 1016.7 0.0
30/09:30pm 18.8 17.2 10.1 57 4.6 W 9 13 5 7 1017.0 1016.9 0.0
30/09:00pm 19.0 16.8 9.5 54 5.0 WNW 11 13 6 7 1017.0 1016.9 0.0
30/08:30pm 18.5 16.8 8.5 52 5.2 NW 7 9 4 5 1016.7 1016.6 0.0
30/08:00pm 21.1 19.5 8.7 45 6.5 WSW 7 11 4 6 1016.4 1016.3 0.0
30/07:30pm 21.6 19.1 8.1 42 7.1 W 11 13 6 7 1016.1 1016.0 0.0
30/07:00pm 22.2 18.8 3.8 30 8.9 WNW 11 15 6 8 1015.8 1015.7 0.0
30/06:30pm 23.3 20.4 4.8 30 9.2 NW 9 13 5 7 1015.5 1015.4 0.0
30/06:00pm 25.9 22.4 5.5 27 10.4 N 13 15 7 8 1015.3 1015.2 0.0
30/05:30pm 29.0 23.6 -4.4 11 14.6 N 15 20 8 11 1015.1 1015.0 0.0
30/05:00pm 30.4 24.2 -4.6 10 15.5 N 19 24 10 13 1014.9 1014.8 0.0

Other Formats:

Comma delimited format used in spreadsheet applications
http://www.bom.gov.au/fwo/IDW60801/IDW60801.94308.axf

JavaScript Object Notation format (JSON) in row-major order
http://www.bom.gov.au/fwo/IDW60801/IDW60801.94308.json